sensor_id;sensor_type;location;lat;lon;timestamp;pressure;altitude;pressure_sealevel;temperature;humidity
83095;BME280;72967;43.674;6.976;2024-01-27T00:00:17;97639.72;;;10.25;76.57
83095;BME280;72967;43.674;6.976;2024-01-27T00:02:43;97642.94;;;10.27;76.59
83095;BME280;72967;43.674;6.976;2024-01-27T00:05:09;97645.06;;;10.39;76.09
83095;BME280;72967;43.674;6.976;2024-01-27T00:07:34;97630.66;;;10.50;75.87
83095;BME280;72967;43.674;6.976;2024-01-27T00:10:01;97630.19;;;10.40;75.56
83095;BME280;72967;43.674;6.976;2024-01-27T00:12:26;97621.78;;;10.45;75.93
83095;BME280;72967;43.674;6.976;2024-01-27T00:14:52;97621.91;;;10.31;76.08
83095;BME280;72967;43.674;6.976;2024-01-27T00:17:17;97616.75;;;10.55;74.89
83095;BME280;72967;43.674;6.976;2024-01-27T00:19:44;97620.47;;;10.34;75.77
83095;BME280;72967;43.674;6.976;2024-01-27T00:22:10;97621.28;;;10.43;75.25
83095;BME280;72967;43.674;6.976;2024-01-27T00:24:35;97626.78;;;10.26;75.75
83095;BME280;72967;43.674;6.976;2024-01-27T00:27:01;97611.41;;;10.16;76.62
83095;BME280;72967;43.674;6.976;2024-01-27T00:29:26;97623.06;;;10.21;76.21
83095;BME280;72967;43.674;6.976;2024-01-27T00:31:51;97628.22;;;10.23;76.07
83095;BME280;72967;43.674;6.976;2024-01-27T00:34:19;97633.22;;;10.04;76.82
83095;BME280;72967;43.674;6.976;2024-01-27T00:36:45;97633.72;;;10.14;76.14
83095;BME280;72967;43.674;6.976;2024-01-27T00:39:18;97635.91;;;9.95;77.63
83095;BME280;72967;43.674;6.976;2024-01-27T00:41:44;97642.00;;;10.40;75.66
83095;BME280;72967;43.674;6.976;2024-01-27T00:44:10;97644.06;;;10.52;74.46
83095;BME280;72967;43.674;6.976;2024-01-27T00:46:36;97645.72;;;10.36;74.95
83095;BME280;72967;43.674;6.976;2024-01-27T00:49:02;97651.34;;;10.39;74.79
83095;BME280;72967;43.674;6.976;2024-01-27T00:51:28;97651.22;;;10.36;74.62
83095;BME280;72967;43.674;6.976;2024-01-27T00:53:53;97651.03;;;10.23;74.56
83095;BME280;72967;43.674;6.976;2024-01-27T00:56:18;97669.44;;;10.32;74.48
83095;BME280;72967;43.674;6.976;2024-01-27T00:58:44;97660.91;;;10.50;74.52
83095;BME280;72967;43.674;6.976;2024-01-27T01:01:09;97657.19;;;10.46;74.91
83095;BME280;72967;43.674;6.976;2024-01-27T01:03:35;97662.19;;;10.36;75.51
83095;BME280;72967;43.674;6.976;2024-01-27T01:06:01;97668.97;;;10.30;75.36
83095;BME280;72967;43.674;6.976;2024-01-27T01:08:26;97657.34;;;10.58;74.12
83095;BME280;72967;43.674;6.976;2024-01-27T01:10:53;97653.13;;;10.70;74.21
83095;BME280;72967;43.674;6.976;2024-01-27T01:13:18;97665.91;;;10.65;74.83
83095;BME280;72967;43.674;6.976;2024-01-27T01:15:44;97678.84;;;10.65;74.16
83095;BME280;72967;43.674;6.976;2024-01-27T01:18:09;97669.13;;;10.59;74.29
83095;BME280;72967;43.674;6.976;2024-01-27T01:20:35;97670.09;;;10.63;74.16
83095;BME280;72967;43.674;6.976;2024-01-27T01:23:00;97674.97;;;10.40;74.58
83095;BME280;72967;43.674;6.976;2024-01-27T01:25:26;97666.53;;;10.28;75.09
83095;BME280;72967;43.674;6.976;2024-01-27T01:27:51;97679.16;;;10.29;74.93
83095;BME280;72967;43.674;6.976;2024-01-27T01:30:17;97678.19;;;10.25;74.63
83095;BME280;72967;43.674;6.976;2024-01-27T01:32:43;97684.50;;;10.34;75.01
83095;BME280;72967;43.674;6.976;2024-01-27T01:35:10;97680.31;;;10.54;74.94
83095;BME280;72967;43.674;6.976;2024-01-27T01:37:35;97685.63;;;10.68;74.46
83095;BME280;72967;43.674;6.976;2024-01-27T01:40:01;97682.72;;;10.55;74.02
83095;BME280;72967;43.674;6.976;2024-01-27T01:42:26;97689.38;;;10.46;75.21
83095;BME280;72967;43.674;6.976;2024-01-27T01:44:51;97674.31;;;10.43;74.11
83095;BME280;72967;43.674;6.976;2024-01-27T01:47:18;97686.44;;;10.68;74.11
83095;BME280;72967;43.674;6.976;2024-01-27T01:49:43;97673.81;;;10.76;72.90
83095;BME280;72967;43.674;6.976;2024-01-27T01:52:10;97695.31;;;10.91;72.13
83095;BME280;72967;43.674;6.976;2024-01-27T01:54:36;97696.78;;;10.62;73.54
83095;BME280;72967;43.674;6.976;2024-01-27T01:57:02;97701.97;;;10.64;73.88
83095;BME280;72967;43.674;6.976;2024-01-27T01:59:28;97701.78;;;10.78;72.96
83095;BME280;72967;43.674;6.976;2024-01-27T02:01:54;97699.06;;;10.69;73.29
83095;BME280;72967;43.674;6.976;2024-01-27T02:04:19;97700.53;;;10.67;73.81
83095;BME280;72967;43.674;6.976;2024-01-27T02:06:45;97706.03;;;10.67;73.83
83095;BME280;72967;43.674;6.976;2024-01-27T02:09:10;97707.47;;;10.81;73.61
83095;BME280;72967;43.674;6.976;2024-01-27T02:11:36;97687.44;;;10.72;72.55
83095;BME280;72967;43.674;6.976;2024-01-27T02:14:02;97706.69;;;10.72;72.65
83095;BME280;72967;43.674;6.976;2024-01-27T02:16:27;97702.31;;;10.71;72.59
83095;BME280;72967;43.674;6.976;2024-01-27T02:18:52;97711.19;;;10.59;73.41
83095;BME280;72967;43.674;6.976;2024-01-27T02:21:18;97717.97;;;10.53;73.22
83095;BME280;72967;43.674;6.976;2024-01-27T02:23:43;97710.69;;;10.57;73.92
83095;BME280;72967;43.674;6.976;2024-01-27T02:26:09;97696.63;;;10.76;72.85
83095;BME280;72967;43.674;6.976;2024-01-27T02:28:34;97726.41;;;10.65;73.63
83095;BME280;72967;43.674;6.976;2024-01-27T02:31:00;97720.09;;;10.65;74.06
83095;BME280;72967;43.674;6.976;2024-01-27T02:33:26;97729.63;;;10.68;73.33
83095;BME280;72967;43.674;6.976;2024-01-27T02:35:51;97631.63;;;10.20;72.72
83095;BME280;72967;43.674;6.976;2024-01-27T02:38:17;97728.66;;;10.63;74.28
83095;BME280;72967;43.674;6.976;2024-01-27T02:40:42;97727.84;;;10.80;73.16
83095;BME280;72967;43.674;6.976;2024-01-27T02:43:08;97735.44;;;11.00;72.47
83095;BME280;72967;43.674;6.976;2024-01-27T02:45:33;97729.94;;;11.18;71.16
83095;BME280;72967;43.674;6.976;2024-01-27T02:47:59;97736.03;;;11.32;71.63
83095;BME280;72967;43.674;6.976;2024-01-27T02:50:24;97738.66;;;11.20;71.78
83095;BME280;72967;43.674;6.976;2024-01-27T02:52:50;97746.28;;;11.23;71.47
83095;BME280;72967;43.674;6.976;2024-01-27T02:55:15;97736.41;;;11.13;72.72
83095;BME280;72967;43.674;6.976;2024-01-27T02:57:41;97737.88;;;11.02;73.30
83095;BME280;72967;43.674;6.976;2024-01-27T03:00:07;97720.91;;;10.91;72.58
83095;BME280;72967;43.674;6.976;2024-01-27T03:02:33;97730.09;;;11.04;73.17
83095;BME280;72967;43.674;6.976;2024-01-27T03:04:58;97732.53;;;11.05;72.42
83095;BME280;72967;43.674;6.976;2024-01-27T03:07:23;97741.44;;;10.94;72.83
83095;BME280;72967;43.674;6.976;2024-01-27T03:09:49;97740.97;;;10.75;73.75
83095;BME280;72967;43.674;6.976;2024-01-27T03:12:15;97733.19;;;10.85;73.76
83095;BME280;72967;43.674;6.976;2024-01-27T03:14:41;97738.53;;;11.07;72.49
83095;BME280;72967;43.674;6.976;2024-01-27T03:17:07;97728.63;;;11.15;72.81
83095;BME280;72967;43.674;6.976;2024-01-27T03:19:32;97741.09;;;11.13;72.49
83095;BME280;72967;43.674;6.976;2024-01-27T03:21:58;97747.59;;;11.08;73.01
83095;BME280;72967;43.674;6.976;2024-01-27T03:24:23;97739.50;;;11.03;72.67
83095;BME280;72967;43.674;6.976;2024-01-27T03:26:49;97736.56;;;11.17;72.33
83095;BME280;72967;43.674;6.976;2024-01-27T03:29:15;97740.75;;;11.23;72.48
83095;BME280;72967;43.674;6.976;2024-01-27T03:31:40;97744.34;;;11.23;72.27
83095;BME280;72967;43.674;6.976;2024-01-27T03:34:05;97741.22;;;11.25;72.90
83095;BME280;72967;43.674;6.976;2024-01-27T03:36:31;97741.75;;;11.01;73.83
83095;BME280;72967;43.674;6.976;2024-01-27T03:38:58;97742.56;;;11.10;73.10
83095;BME280;72967;43.674;6.976;2024-01-27T03:41:23;97747.28;;;10.92;73.78
83095;BME280;72967;43.674;6.976;2024-01-27T03:43:49;97752.91;;;11.04;73.15
83095;BME280;72967;43.674;6.976;2024-01-27T03:46:14;97744.00;;;10.99;73.80
83095;BME280;72967;43.674;6.976;2024-01-27T03:48:40;97736.59;;;11.08;72.56
83095;BME280;72967;43.674;6.976;2024-01-27T03:51:06;97750.00;;;11.18;72.26
83095;BME280;72967;43.674;6.976;2024-01-27T03:53:31;97686.91;;;10.79;71.63
83095;BME280;72967;43.674;6.976;2024-01-27T03:55:57;97756.31;;;11.10;71.76
83095;BME280;72967;43.674;6.976;2024-01-27T03:58:25;97761.53;;;10.77;73.14
83095;BME280;72967;43.674;6.976;2024-01-27T04:00:51;97747.75;;;10.51;73.90
83095;BME280;72967;43.674;6.976;2024-01-27T04:03:17;97769.59;;;10.65;72.82
83095;BME280;72967;43.674;6.976;2024-01-27T04:05:42;97771.53;;;10.56;73.08
83095;BME280;72967;43.674;6.976;2024-01-27T04:08:07;97765.53;;;10.54;73.31
83095;BME280;72967;43.674;6.976;2024-01-27T04:10:33;97774.56;;;10.37;73.80
83095;BME280;72967;43.674;6.976;2024-01-27T04:12:59;97771.63;;;10.34;73.19
83095;BME280;72967;43.674;6.976;2024-01-27T04:15:25;97775.56;;;10.41;73.05
83095;BME280;72967;43.674;6.976;2024-01-27T04:17:50;97775.25;;;10.51;73.04
83095;BME280;72967;43.674;6.976;2024-01-27T04:20:16;97774.94;;;10.61;72.98
83095;BME280;72967;43.674;6.976;2024-01-27T04:22:41;97778.19;;;10.81;71.85
83095;BME280;72967;43.674;6.976;2024-01-27T04:25:07;97764.09;;;10.74;72.15
83095;BME280;72967;43.674;6.976;2024-01-27T04:27:36;97763.59;;;10.54;73.40
83095;BME280;72967;43.674;6.976;2024-01-27T04:30:02;97774.59;;;10.46;74.28
83095;BME280;72967;43.674;6.976;2024-01-27T04:32:28;97779.59;;;10.52;74.49
83095;BME280;72967;43.674;6.976;2024-01-27T04:34:53;97783.34;;;10.56;74.06
83095;BME280;72967;43.674;6.976;2024-01-27T04:37:19;97772.97;;;10.45;74.45
83095;BME280;72967;43.674;6.976;2024-01-27T04:39:44;97775.41;;;10.55;74.55
83095;BME280;72967;43.674;6.976;2024-01-27T04:42:09;97773.78;;;10.45;74.05
83095;BME280;72967;43.674;6.976;2024-01-27T04:44:35;97770.53;;;10.52;73.74
83095;BME280;72967;43.674;6.976;2024-01-27T04:47:00;97769.91;;;10.55;73.94
83095;BME280;72967;43.674;6.976;2024-01-27T04:49:26;97760.38;;;10.61;73.46
83095;BME280;72967;43.674;6.976;2024-01-27T04:51:51;97764.56;;;10.58;73.48
83095;BME280;72967;43.674;6.976;2024-01-27T04:54:17;97751.94;;;10.49;73.33
83095;BME280;72967;43.674;6.976;2024-01-27T04:56:42;97756.94;;;10.38;74.36
83095;BME280;72967;43.674;6.976;2024-01-27T04:59:07;97759.97;;;10.19;75.01
83095;BME280;72967;43.674;6.976;2024-01-27T05:01:33;97742.28;;;10.03;75.04
83095;BME280;72967;43.674;6.976;2024-01-27T05:03:59;97761.97;;;10.05;75.37
83095;BME280;72967;43.674;6.976;2024-01-27T05:06:24;97765.22;;;9.99;75.48
83095;BME280;72967;43.674;6.976;2024-01-27T05:08:50;97769.75;;;10.03;75.90
83095;BME280;72967;43.674;6.976;2024-01-27T05:11:24;97765.22;;;9.99;75.76
83095;BME280;72967;43.674;6.976;2024-01-27T05:13:50;97767.47;;;9.97;75.36
83095;BME280;72967;43.674;6.976;2024-01-27T05:16:15;97773.47;;;10.07;75.55
83095;BME280;72967;43.674;6.976;2024-01-27T05:18:41;97767.41;;;10.19;74.28
83095;BME280;72967;43.674;6.976;2024-01-27T05:21:06;97766.75;;;10.22;74.43
83095;BME280;72967;43.674;6.976;2024-01-27T05:23:31;97764.81;;;10.22;74.30
83095;BME280;72967;43.674;6.976;2024-01-27T05:25:57;97770.88;;;10.11;74.55
83095;BME280;72967;43.674;6.976;2024-01-27T05:28:22;97774.28;;;9.99;75.58
83095;BME280;72967;43.674;6.976;2024-01-27T05:30:48;97780.88;;;9.98;75.66
83095;BME280;72967;43.674;6.976;2024-01-27T05:33:13;97780.50;;;9.82;75.96
83095;BME280;72967;43.674;6.976;2024-01-27T05:35:38;97783.06;;;9.79;76.20
83095;BME280;72967;43.674;6.976;2024-01-27T05:38:04;97782.06;;;9.75;76.26
83095;BME280;72967;43.674;6.976;2024-01-27T05:40:29;97785.06;;;9.96;75.70
83095;BME280;72967;43.674;6.976;2024-01-27T05:42:54;97782.50;;;9.99;75.35
83095;BME280;72967;43.674;6.976;2024-01-27T05:45:20;97786.69;;;9.97;75.66
83095;BME280;72967;43.674;6.976;2024-01-27T05:47:45;97787.50;;;9.97;76.05
83095;BME280;72967;43.674;6.976;2024-01-27T05:50:11;97796.41;;;10.03;75.85
83095;BME280;72967;43.674;6.976;2024-01-27T05:52:36;97794.41;;;9.86;75.70
83095;BME280;72967;43.674;6.976;2024-01-27T05:55:02;97784.47;;;9.68;76.18
83095;BME280;72967;43.674;6.976;2024-01-27T05:57:28;97781.84;;;9.63;77.37
83095;BME280;72967;43.674;6.976;2024-01-27T05:59:53;97805.75;;;9.62;77.17
83095;BME280;72967;43.674;6.976;2024-01-27T06:02:19;97809.31;;;9.63;77.48
83095;BME280;72967;43.674;6.976;2024-01-27T06:04:45;97813.19;;;9.62;77.30
83095;BME280;72967;43.674;6.976;2024-01-27T06:07:11;97819.47;;;9.62;77.11
83095;BME280;72967;43.674;6.976;2024-01-27T06:09:39;97820.47;;;9.66;77.65
83095;BME280;72967;43.674;6.976;2024-01-27T06:12:05;97818.53;;;9.67;77.46
83095;BME280;72967;43.674;6.976;2024-01-27T06:14:30;97813.84;;;9.67;77.45
83095;BME280;72967;43.674;6.976;2024-01-27T06:16:56;97818.09;;;9.73;77.13
83095;BME280;72967;43.674;6.976;2024-01-27T06:19:22;97822.56;;;9.69;77.01
83095;BME280;72967;43.674;6.976;2024-01-27T06:21:47;97823.75;;;9.77;76.82
83095;BME280;72967;43.674;6.976;2024-01-27T06:24:13;97824.25;;;9.79;77.44
83095;BME280;72967;43.674;6.976;2024-01-27T06:26:38;97832.63;;;9.74;77.24
83095;BME280;72967;43.674;6.976;2024-01-27T06:29:03;97801.34;;;9.53;77.08
83095;BME280;72967;43.674;6.976;2024-01-27T06:31:29;97836.31;;;9.69;76.92
83095;BME280;72967;43.674;6.976;2024-01-27T06:33:54;97837.94;;;9.70;77.18
83095;BME280;72967;43.674;6.976;2024-01-27T06:36:20;97846.28;;;9.65;77.24
83095;BME280;72967;43.674;6.976;2024-01-27T06:38:48;97787.75;;;9.25;77.73
83095;BME280;72967;43.674;6.976;2024-01-27T06:41:13;97847.63;;;9.68;77.19
83095;BME280;72967;43.674;6.976;2024-01-27T06:43:39;97834.03;;;9.63;76.73
83095;BME280;72967;43.674;6.976;2024-01-27T06:46:04;97855.22;;;9.71;76.96
83095;BME280;72967;43.674;6.976;2024-01-27T06:48:30;97842.56;;;9.61;77.35
83095;BME280;72967;43.674;6.976;2024-01-27T06:50:56;97841.25;;;9.59;77.72
83095;BME280;72967;43.674;6.976;2024-01-27T06:53:21;97862.47;;;9.67;77.45
83095;BME280;72967;43.674;6.976;2024-01-27T06:55:46;97864.09;;;9.68;76.76
83095;BME280;72967;43.674;6.976;2024-01-27T06:58:12;97871.69;;;9.71;76.37
83095;BME280;72967;43.674;6.976;2024-01-27T07:00:38;97869.63;;;9.76;76.21
83095;BME280;72967;43.674;6.976;2024-01-27T07:03:04;97868.34;;;9.74;76.18
83095;BME280;72967;43.674;6.976;2024-01-27T07:05:29;97871.81;;;9.66;76.86
83095;BME280;72967;43.674;6.976;2024-01-27T07:07:54;97871.56;;;9.76;75.87
83095;BME280;72967;43.674;6.976;2024-01-27T07:10:20;97870.81;;;9.84;76.04
83095;BME280;72967;43.674;6.976;2024-01-27T07:12:45;97876.47;;;9.88;76.32
83095;BME280;72967;43.674;6.976;2024-01-27T07:15:11;97880.22;;;9.92;76.22
83095;BME280;72967;43.674;6.976;2024-01-27T07:17:36;97889.13;;;9.97;75.84
83095;BME280;72967;43.674;6.976;2024-01-27T07:20:02;97884.63;;;10.01;75.24
83095;BME280;72967;43.674;6.976;2024-01-27T07:22:28;97893.19;;;10.00;75.02
83095;BME280;72967;43.674;6.976;2024-01-27T07:24:53;97886.75;;;10.04;74.60
83095;BME280;72967;43.674;6.976;2024-01-27T07:27:19;97899.84;;;10.07;73.26
83095;BME280;72967;43.674;6.976;2024-01-27T07:29:44;97890.97;;;10.10;73.37
83095;BME280;72967;43.674;6.976;2024-01-27T07:32:10;97896.56;;;10.19;73.07
83095;BME280;72967;43.674;6.976;2024-01-27T07:34:43;97897.22;;;10.25;73.93
83095;BME280;72967;43.674;6.976;2024-01-27T07:37:09;97907.44;;;10.33;73.82
83095;BME280;72967;43.674;6.976;2024-01-27T07:39:35;97898.38;;;10.32;72.98
83095;BME280;72967;43.674;6.976;2024-01-27T07:42:00;97893.75;;;10.41;73.25
83095;BME280;72967;43.674;6.976;2024-01-27T07:44:27;97911.53;;;10.44;74.11
83095;BME280;72967;43.674;6.976;2024-01-27T07:46:53;97912.72;;;10.51;73.72
83095;BME280;72967;43.674;6.976;2024-01-27T07:49:18;97914.72;;;10.77;72.14
83095;BME280;72967;43.674;6.976;2024-01-27T07:51:44;97909.19;;;10.68;73.09
83095;BME280;72967;43.674;6.976;2024-01-27T07:54:09;97911.03;;;10.81;73.35
83095;BME280;72967;43.674;6.976;2024-01-27T07:56:35;97914.28;;;10.92;72.27
83095;BME280;72967;43.674;6.976;2024-01-27T07:59:01;97910.06;;;10.94;71.90
83095;BME280;72967;43.674;6.976;2024-01-27T08:01:26;97907.97;;;11.00;72.56
83095;BME280;72967;43.674;6.976;2024-01-27T08:03:52;97906.53;;;11.20;71.50
83095;BME280;72967;43.674;6.976;2024-01-27T08:06:20;97906.88;;;11.27;72.15
83095;BME280;72967;43.674;6.976;2024-01-27T08:08:47;97901.22;;;11.32;71.80
83095;BME280;72967;43.674;6.976;2024-01-27T08:11:13;97904.31;;;11.39;71.88
83095;BME280;72967;43.674;6.976;2024-01-27T08:13:40;97903.97;;;11.40;71.60
83095;BME280;72967;43.674;6.976;2024-01-27T08:16:05;97907.06;;;11.47;71.99
83095;BME280;72967;43.674;6.976;2024-01-27T08:18:31;97914.66;;;11.50;71.11
83095;BME280;72967;43.674;6.976;2024-01-27T08:20:57;97922.59;;;11.52;71.61
83095;BME280;72967;43.674;6.976;2024-01-27T08:23:23;97924.88;;;11.59;71.76
83095;BME280;72967;43.674;6.976;2024-01-27T08:25:48;97929.72;;;11.62;71.64
83095;BME280;72967;43.674;6.976;2024-01-27T08:28:18;97923.91;;;11.63;71.33
83095;BME280;72967;43.674;6.976;2024-01-27T08:30:43;97923.41;;;11.70;71.24
83095;BME280;72967;43.674;6.976;2024-01-27T08:33:08;97929.25;;;11.68;71.12
83095;BME280;72967;43.674;6.976;2024-01-27T08:35:34;97940.63;;;11.75;71.27
83095;BME280;72967;43.674;6.976;2024-01-27T08:37:59;97936.22;;;11.83;70.96
83095;BME280;72967;43.674;6.976;2024-01-27T08:40:25;97946.75;;;11.89;70.57
83095;BME280;72967;43.674;6.976;2024-01-27T08:42:50;97942.72;;;11.96;70.75
83095;BME280;72967;43.674;6.976;2024-01-27T08:45:16;97940.41;;;11.98;70.44
83095;BME280;72967;43.674;6.976;2024-01-27T08:47:42;97953.03;;;12.07;70.63
83095;BME280;72967;43.674;6.976;2024-01-27T08:50:08;97958.25;;;12.09;70.79
83095;BME280;72967;43.674;6.976;2024-01-27T08:52:33;97954.00;;;12.20;69.77
83095;BME280;72967;43.674;6.976;2024-01-27T08:54:59;97961.63;;;12.14;69.79
83095;BME280;72967;43.674;6.976;2024-01-27T08:57:24;97946.88;;;12.19;70.07
83095;BME280;72967;43.674;6.976;2024-01-27T08:59:50;97956.09;;;12.23;69.68
83095;BME280;72967;43.674;6.976;2024-01-27T09:02:15;97953.66;;;12.30;69.52
83095;BME280;72967;43.674;6.976;2024-01-27T09:04:40;97951.22;;;12.28;69.78
83095;BME280;72967;43.674;6.976;2024-01-27T09:07:06;97955.59;;;12.38;69.47
83095;BME280;72967;43.674;6.976;2024-01-27T09:09:31;97964.81;;;12.42;69.28
83095;BME280;72967;43.674;6.976;2024-01-27T09:11:57;97960.25;;;12.46;69.15
83095;BME280;72967;43.674;6.976;2024-01-27T09:14:22;97969.13;;;12.60;68.56
83095;BME280;72967;43.674;6.976;2024-01-27T09:16:47;97965.72;;;12.63;69.10
83095;BME280;72967;43.674;6.976;2024-01-27T09:19:13;97960.53;;;12.62;69.50
83095;BME280;72967;43.674;6.976;2024-01-27T09:21:38;97967.31;;;12.64;69.08
83095;BME280;72967;43.674;6.976;2024-01-27T09:24:04;97967.16;;;12.69;68.92
83095;BME280;72967;43.674;6.976;2024-01-27T09:26:29;97969.84;;;12.87;68.58
83095;BME280;72967;43.674;6.976;2024-01-27T09:28:55;97957.03;;;12.82;68.02
83095;BME280;72967;43.674;6.976;2024-01-27T09:31:23;97965.47;;;12.86;68.34
83095;BME280;72967;43.674;6.976;2024-01-27T09:33:50;97975.91;;;13.09;67.17
83095;BME280;72967;43.674;6.976;2024-01-27T09:36:19;97975.56;;;13.11;66.83
83095;BME280;72967;43.674;6.976;2024-01-27T09:38:46;97975.94;;;13.01;66.78
83095;BME280;72967;43.674;6.976;2024-01-27T09:41:13;97976.06;;;13.13;66.46
83095;BME280;72967;43.674;6.976;2024-01-27T09:43:42;97977.06;;;13.08;66.07
83095;BME280;72967;43.674;6.976;2024-01-27T09:46:10;97981.09;;;13.11;66.56
83095;BME280;72967;43.674;6.976;2024-01-27T09:48:35;97985.19;;;13.05;66.98
83095;BME280;72967;43.674;6.976;2024-01-27T09:51:01;97983.09;;;13.02;66.50
83095;BME280;72967;43.674;6.976;2024-01-27T09:53:28;97992.66;;;13.13;66.51
83095;BME280;72967;43.674;6.976;2024-01-27T09:55:55;97988.03;;;13.26;65.93
83095;BME280;72967;43.674;6.976;2024-01-27T09:58:24;98007.00;;;13.36;66.01
83095;BME280;72967;43.674;6.976;2024-01-27T10:00:51;98005.59;;;13.50;65.69
83095;BME280;72967;43.674;6.976;2024-01-27T10:03:18;98002.91;;;13.63;65.55
83095;BME280;72967;43.674;6.976;2024-01-27T10:05:45;97999.53;;;13.57;64.88
83095;BME280;72967;43.674;6.976;2024-01-27T10:08:11;98007.63;;;13.62;64.92
83095;BME280;72967;43.674;6.976;2024-01-27T10:10:37;98003.84;;;13.67;64.44
83095;BME280;72967;43.674;6.976;2024-01-27T10:13:04;98007.88;;;13.69;65.17
83095;BME280;72967;43.674;6.976;2024-01-27T10:15:29;98001.09;;;13.67;65.36
83095;BME280;72967;43.674;6.976;2024-01-27T10:18:07;98007.78;;;13.86;65.10
83095;BME280;72967;43.674;6.976;2024-01-27T10:20:34;97998.13;;;13.51;65.82
83095;BME280;72967;43.674;6.976;2024-01-27T10:23:10;98017.47;;;13.51;66.15
83095;BME280;72967;43.674;6.976;2024-01-27T10:25:39;98019.09;;;13.73;65.50
83095;BME280;72967;43.674;6.976;2024-01-27T10:28:08;98011.59;;;13.73;65.52
83095;BME280;72967;43.674;6.976;2024-01-27T10:30:34;98019.63;;;13.66;65.67
83095;BME280;72967;43.674;6.976;2024-01-27T10:32:59;98026.50;;;13.60;66.14
83095;BME280;72967;43.674;6.976;2024-01-27T10:35:25;98019.50;;;13.83;64.80
83095;BME280;72967;43.674;6.976;2024-01-27T10:37:54;98012.09;;;13.96;64.66
83095;BME280;72967;43.674;6.976;2024-01-27T10:40:21;98013.44;;;13.90;64.76
83095;BME280;72967;43.674;6.976;2024-01-27T10:45:22;98016.19;;;13.90;64.29
83095;BME280;72967;43.674;6.976;2024-01-27T10:47:48;98020.16;;;14.01;64.34
83095;BME280;72967;43.674;6.976;2024-01-27T10:50:14;98020.25;;;14.13;63.75
83095;BME280;72967;43.674;6.976;2024-01-27T10:52:41;98002.09;;;14.03;63.41
83095;BME280;72967;43.674;6.976;2024-01-27T10:55:09;98015.75;;;14.21;63.40
83095;BME280;72967;43.674;6.976;2024-01-27T10:57:37;98007.72;;;14.28;63.10
83095;BME280;72967;43.674;6.976;2024-01-27T11:00:04;98017.13;;;14.15;63.65
83095;BME280;72967;43.674;6.976;2024-01-27T11:02:35;98011.91;;;14.34;63.52
83095;BME280;72967;43.674;6.976;2024-01-27T11:05:04;98010.22;;;14.41;62.70
83095;BME280;72967;43.674;6.976;2024-01-27T11:07:32;98004.16;;;14.48;62.28
83095;BME280;72967;43.674;6.976;2024-01-27T11:09:58;98005.78;;;14.49;62.73
83095;BME280;72967;43.674;6.976;2024-01-27T11:12:24;98002.31;;;14.52;62.99
83095;BME280;72967;43.674;6.976;2024-01-27T11:14:51;97987.63;;;14.39;62.93
83095;BME280;72967;43.674;6.976;2024-01-27T11:17:17;97997.47;;;14.61;62.21
83095;BME280;72967;43.674;6.976;2024-01-27T11:19:44;97999.09;;;14.50;62.74
83095;BME280;72967;43.674;6.976;2024-01-27T11:22:27;97997.47;;;14.61;62.44
83095;BME280;72967;43.674;6.976;2024-01-27T11:27:37;97988.88;;;14.75;61.96
83095;BME280;72967;43.674;6.976;2024-01-27T11:30:03;97980.78;;;14.82;61.94
83095;BME280;72967;43.674;6.976;2024-01-27T11:32:30;97988.88;;;14.87;61.89
83095;BME280;72967;43.674;6.976;2024-01-27T11:34:56;97975.97;;;14.91;61.74
83095;BME280;72967;43.674;6.976;2024-01-27T11:37:22;97988.31;;;14.94;61.99
83095;BME280;72967;43.674;6.976;2024-01-27T11:39:51;97979.66;;;14.95;61.86
83095;BME280;72967;43.674;6.976;2024-01-27T11:42:19;97980.16;;;14.97;61.71
83095;BME280;72967;43.674;6.976;2024-01-27T11:44:45;97975.38;;;14.98;61.73
83095;BME280;72967;43.674;6.976;2024-01-27T11:47:18;97981.41;;;15.12;60.93
83095;BME280;72967;43.674;6.976;2024-01-27T11:49:50;97975.97;;;15.15;60.61
83095;BME280;72967;43.674;6.976;2024-01-27T11:52:18;97973.22;;;15.15;60.91
83095;BME280;72967;43.674;6.976;2024-01-27T11:54:44;97974.34;;;15.14;60.83
83095;BME280;72967;43.674;6.976;2024-01-27T11:57:09;97970.78;;;15.26;60.21
83095;BME280;72967;43.674;6.976;2024-01-27T11:59:34;97968.34;;;15.24;60.35
83095;BME280;72967;43.674;6.976;2024-01-27T12:02:01;97967.19;;;15.38;60.43
83095;BME280;72967;43.674;6.976;2024-01-27T12:04:27;97969.97;;;15.38;59.94
83095;BME280;72967;43.674;6.976;2024-01-27T12:06:53;97960.38;;;15.35;60.05
83095;BME280;72967;43.674;6.976;2024-01-27T12:09:19;97963.25;;;15.51;60.76
83095;BME280;72967;43.674;6.976;2024-01-27T12:11:45;97961.31;;;15.51;60.22
83095;BME280;72967;43.674;6.976;2024-01-27T12:14:11;97959.09;;;15.57;59.74
83095;BME280;72967;43.674;6.976;2024-01-27T12:16:37;97951.25;;;15.59;60.15
83095;BME280;72967;43.674;6.976;2024-01-27T12:19:03;97951.13;;;15.67;59.85
83095;BME280;72967;43.674;6.976;2024-01-27T12:21:29;97954.22;;;15.66;59.97
83095;BME280;72967;43.674;6.976;2024-01-27T12:23:56;97955.25;;;15.73;59.38
83095;BME280;72967;43.674;6.976;2024-01-27T12:26:26;97950.66;;;15.65;59.25
83095;BME280;72967;43.674;6.976;2024-01-27T12:28:51;97955.34;;;15.77;58.94
83095;BME280;72967;43.674;6.976;2024-01-27T12:31:18;97948.66;;;15.78;59.12
83095;BME280;72967;43.674;6.976;2024-01-27T12:33:50;97955.13;;;15.70;59.66
83095;BME280;72967;43.674;6.976;2024-01-27T12:36:20;97941.53;;;15.65;59.23
83095;BME280;72967;43.674;6.976;2024-01-27T12:39:01;97947.94;;;15.81;59.20
83095;BME280;72967;43.674;6.976;2024-01-27T12:41:29;97944.91;;;15.86;59.48
83095;BME280;72967;43.674;6.976;2024-01-27T12:43:55;97917.25;;;15.74;58.87
83095;BME280;72967;43.674;6.976;2024-01-27T12:46:21;97942.38;;;15.93;59.38
83095;BME280;72967;43.674;6.976;2024-01-27T12:48:47;97940.91;;;15.84;59.32
83095;BME280;72967;43.674;6.976;2024-01-27T12:51:12;97941.00;;;15.87;59.62
83095;BME280;72967;43.674;6.976;2024-01-27T12:53:39;97938.94;;;15.84;59.96
83095;BME280;72967;43.674;6.976;2024-01-27T12:56:08;97935.91;;;15.89;60.25
83095;BME280;72967;43.674;6.976;2024-01-27T12:58:33;97926.63;;;15.97;59.70
83095;BME280;72967;43.674;6.976;2024-01-27T13:00:59;97935.66;;;15.94;59.37